createdAt,value
2023-05-23T00:01:08.173Z,3.95
2023-05-23T00:03:35.829Z,3.30
2023-05-23T00:06:04.738Z,3.33
2023-05-23T00:08:32.050Z,4.20
2023-05-23T00:10:59.669Z,2.83
2023-05-23T00:13:27.075Z,4.82
2023-05-23T00:15:54.807Z,3.03
2023-05-23T00:18:24.916Z,4.22
2023-05-23T00:20:55.461Z,4.20
2023-05-23T00:23:25.472Z,4.28
2023-05-23T00:25:53.952Z,3.97
2023-05-23T00:28:22.571Z,4.00
2023-05-23T00:30:50.481Z,3.83
2023-05-23T00:33:22.035Z,4.00
2023-05-23T00:35:50.062Z,3.45
2023-05-23T00:38:20.274Z,3.92
2023-05-23T00:40:48.494Z,4.63
2023-05-23T00:43:16.417Z,5.22
2023-05-23T00:45:43.798Z,4.47
2023-05-23T00:48:12.185Z,4.03
2023-05-23T00:50:39.755Z,3.63
2023-05-23T00:53:07.386Z,4.10
2023-05-23T00:55:35.070Z,4.45
2023-05-23T00:58:02.803Z,3.97
2023-05-23T01:00:30.450Z,3.88
2023-05-23T01:02:58.234Z,3.70
2023-05-23T01:05:25.621Z,3.75
2023-05-23T01:07:54.973Z,4.35
2023-05-23T01:10:26.927Z,3.85
2023-05-23T01:13:03.186Z,3.38
2023-05-23T01:15:40.725Z,3.95
2023-05-23T01:18:14.681Z,4.30
2023-05-23T01:21:06.737Z,3.90
2023-05-23T01:23:59.337Z,4.53
2023-05-23T01:26:29.331Z,3.83
2023-05-23T01:29:10.600Z,4.47
2023-05-23T01:31:44.352Z,4.40
2023-05-23T01:34:14.009Z,4.05
2023-05-23T01:36:43.783Z,3.63
2023-05-23T01:39:12.180Z,4.15
2023-05-23T01:41:42.485Z,4.65
2023-05-23T01:44:10.023Z,3.35
2023-05-23T01:46:39.473Z,3.78
2023-05-23T01:49:12.008Z,3.42
2023-05-23T01:51:39.783Z,4.78
2023-05-23T01:54:07.675Z,4.03
2023-05-23T01:56:35.635Z,4.82
2023-05-23T01:59:03.784Z,3.40
2023-05-23T02:01:31.808Z,3.33
2023-05-23T02:03:59.585Z,4.30
2023-05-23T02:06:27.607Z,4.32
2023-05-23T02:08:55.049Z,3.88
2023-05-23T02:11:22.675Z,3.72
2023-05-23T02:13:50.816Z,4.05
2023-05-23T02:16:18.194Z,4.05
2023-05-23T02:18:46.449Z,3.25
2023-05-23T02:21:13.818Z,3.03
2023-05-23T02:23:41.170Z,3.17
2023-05-23T02:26:09.156Z,4.20
2023-05-23T02:28:36.668Z,2.78
2023-05-23T02:31:04.177Z,3.42
2023-05-23T02:33:31.559Z,3.08
2023-05-23T02:35:59.103Z,4.07
2023-05-23T02:38:27.512Z,3.45
2023-05-23T02:40:56.991Z,3.03
2023-05-23T02:43:25.137Z,3.00
2023-05-23T02:45:52.552Z,3.13
2023-05-23T02:48:20.355Z,3.88
2023-05-23T02:50:47.864Z,2.33
2023-05-23T02:53:15.485Z,2.40
2023-05-23T02:55:43.344Z,3.00
2023-05-23T02:58:11.064Z,2.33
2023-05-23T03:00:38.683Z,3.20
2023-05-23T03:03:06.246Z,3.53
2023-05-23T03:05:33.677Z,2.08
2023-05-23T03:08:01.057Z,2.40
2023-05-23T03:10:28.365Z,2.53
2023-05-23T03:12:56.164Z,2.00
2023-05-23T03:15:23.493Z,2.10
2023-05-23T03:17:51.148Z,2.15
2023-05-23T03:20:18.553Z,2.50
2023-05-23T03:22:46.044Z,1.98
2023-05-23T03:25:16.976Z,1.70
2023-05-23T03:27:44.357Z,2.05
2023-05-23T03:30:13.035Z,2.00
2023-05-23T03:32:40.486Z,1.98
2023-05-23T03:35:08.454Z,1.83
2023-05-23T03:37:35.922Z,1.48
2023-05-23T03:40:04.081Z,1.95
2023-05-23T03:42:32.325Z,1.65
2023-05-23T03:44:59.904Z,1.35
2023-05-23T03:47:27.327Z,1.50
2023-05-23T03:49:56.971Z,1.58
2023-05-23T03:52:25.580Z,1.10
2023-05-23T03:54:52.934Z,1.35
2023-05-23T03:57:20.349Z,1.55
2023-05-23T03:59:48.190Z,1.80
2023-05-23T04:02:15.757Z,1.52
2023-05-23T04:04:44.041Z,2.05
2023-05-23T04:07:11.425Z,1.92
2023-05-23T04:09:41.164Z,1.80
2023-05-23T04:12:11.088Z,1.50
2023-05-23T04:14:39.593Z,1.88
2023-05-23T04:17:09.451Z,1.42
2023-05-23T04:19:37.811Z,1.20
2023-05-23T04:22:06.120Z,1.13
2023-05-23T04:24:33.581Z,1.50
2023-05-23T04:27:00.909Z,1.10
2023-05-23T04:29:31.755Z,1.40
2023-05-23T04:31:59.567Z,1.13
2023-05-23T04:34:27.283Z,1.55
2023-05-23T04:36:55.065Z,1.40
2023-05-23T04:39:22.418Z,1.33
2023-05-23T04:42:09.603Z,1.00
2023-05-23T04:44:51.729Z,1.42
2023-05-23T04:47:37.002Z,0.95
2023-05-23T04:50:08.823Z,2.00
2023-05-23T04:52:36.701Z,1.65
2023-05-23T04:55:04.834Z,1.15
2023-05-23T04:57:32.657Z,1.13
2023-05-23T05:00:02.029Z,0.80
2023-05-23T05:02:35.410Z,1.42
2023-05-23T05:05:07.341Z,1.70
2023-05-23T05:07:35.882Z,1.20
2023-05-23T05:10:04.346Z,1.85
2023-05-23T05:12:33.477Z,1.55
2023-05-23T05:15:01.399Z,1.70
2023-05-23T05:17:37.052Z,2.03
2023-05-23T05:20:08.976Z,1.42
2023-05-23T05:22:40.590Z,1.95
2023-05-23T05:25:10.565Z,1.77
2023-05-23T05:27:39.577Z,1.67
2023-05-23T05:30:10.399Z,2.03
2023-05-23T05:33:07.882Z,1.98
2023-05-23T05:35:35.933Z,1.40
2023-05-23T05:38:05.285Z,1.85
2023-05-23T05:40:33.165Z,1.77
2023-05-23T05:43:01.340Z,1.95
2023-05-23T05:45:28.804Z,1.67
2023-05-23T05:47:56.327Z,2.08
2023-05-23T05:50:25.251Z,1.48
2023-05-23T05:52:52.802Z,1.25
2023-05-23T05:55:20.399Z,1.27
2023-05-23T05:57:52.324Z,1.48
2023-05-23T06:00:20.398Z,1.73
2023-05-23T06:02:47.827Z,1.35
2023-05-23T06:05:20.666Z,1.85
2023-05-23T06:07:50.083Z,1.00
2023-05-23T06:10:17.625Z,1.20
2023-05-23T06:12:45.893Z,1.52
2023-05-23T06:15:14.808Z,1.05
2023-05-23T06:17:43.098Z,1.10
2023-05-23T06:20:11.204Z,1.75
2023-05-23T06:22:41.830Z,1.52
2023-05-23T06:25:09.476Z,1.50
2023-05-23T06:27:38.178Z,1.10
2023-05-23T06:30:06.273Z,1.15
2023-05-23T06:32:33.546Z,1.27
2023-05-23T06:35:00.884Z,1.30
2023-05-23T06:37:28.247Z,1.25
2023-05-23T06:39:57.046Z,1.08
2023-05-23T06:42:24.378Z,1.10
2023-05-23T06:45:06.703Z,1.17
2023-05-23T06:47:34.069Z,1.50
2023-05-23T06:50:04.318Z,1.10
2023-05-23T06:52:33.029Z,1.15
2023-05-23T06:55:00.502Z,1.25
2023-05-23T06:57:27.970Z,0.85
2023-05-23T06:59:55.319Z,1.55
2023-05-23T07:02:23.628Z,0.95
2023-05-23T07:04:51.252Z,1.25
2023-05-23T07:07:37.411Z,1.00
2023-05-23T07:10:05.194Z,1.67
2023-05-23T07:12:34.777Z,0.90
2023-05-23T07:15:02.626Z,1.00
2023-05-23T07:17:31.669Z,1.20
2023-05-23T07:19:58.963Z,1.40
2023-05-23T07:22:27.075Z,0.82
2023-05-23T07:24:54.513Z,1.30
2023-05-23T07:27:27.287Z,1.27
2023-05-23T07:29:54.604Z,1.30
2023-05-23T07:32:22.020Z,0.80
2023-05-23T07:34:49.398Z,1.15
2023-05-23T07:37:16.734Z,1.10
2023-05-23T07:39:45.638Z,1.10
2023-05-23T07:42:13.687Z,1.02
2023-05-23T07:44:42.073Z,1.48
2023-05-23T07:47:10.236Z,0.75
2023-05-23T07:49:37.577Z,0.70
2023-05-23T07:52:05.527Z,1.10
2023-05-23T07:54:34.227Z,1.10
2023-05-23T07:57:03.042Z,0.90
2023-05-23T07:59:31.421Z,1.52
2023-05-23T08:02:02.205Z,0.70
2023-05-23T08:04:30.019Z,0.75
2023-05-23T08:09:33.270Z,1.15
2023-05-23T08:12:01.223Z,0.75
2023-05-23T08:14:38.720Z,0.85
2023-05-23T08:17:31.297Z,1.40
2023-05-23T08:20:00.698Z,0.93
2023-05-23T08:22:29.882Z,1.10
2023-05-23T08:24:58.058Z,0.85
2023-05-23T08:27:27.587Z,1.33
2023-05-23T08:29:58.760Z,0.80
2023-05-23T08:32:26.160Z,1.50
2023-05-23T08:34:53.859Z,1.00
2023-05-23T08:37:21.415Z,1.40
2023-05-23T08:39:48.780Z,0.70
2023-05-23T08:42:30.146Z,1.25
2023-05-23T08:44:58.021Z,0.93
2023-05-23T08:47:25.749Z,1.08
2023-05-23T08:50:02.093Z,1.20
2023-05-23T08:52:33.700Z,0.98
2023-05-23T08:55:01.953Z,1.23
2023-05-23T08:57:31.182Z,0.95
2023-05-23T09:00:11.276Z,0.90
2023-05-23T09:02:39.253Z,1.30
2023-05-23T09:05:19.666Z,1.23
2023-05-23T09:07:49.272Z,0.80
2023-05-23T09:10:21.933Z,1.05
2023-05-23T09:12:49.997Z,0.65
2023-05-23T09:15:17.961Z,0.70
2023-05-23T09:17:47.077Z,0.95
2023-05-23T09:20:16.619Z,1.23
2023-05-23T09:22:50.611Z,1.10
2023-05-23T09:25:18.994Z,1.13
2023-05-23T09:27:48.352Z,0.80
2023-05-23T09:30:17.926Z,0.73
2023-05-23T09:33:05.616Z,1.20
2023-05-23T09:35:34.356Z,1.05
2023-05-23T09:38:01.756Z,1.30
2023-05-23T09:40:32.285Z,0.70
2023-05-23T09:43:05.654Z,1.10
2023-05-23T09:45:33.823Z,1.00
2023-05-23T09:48:02.894Z,0.85
2023-05-23T09:50:33.804Z,1.17
2023-05-23T09:53:02.576Z,1.02
2023-05-23T09:55:30.493Z,1.20
2023-05-23T09:57:59.657Z,0.98
2023-05-23T10:00:28.691Z,0.70
2023-05-23T10:03:25.799Z,1.02
2023-05-23T10:06:01.852Z,0.75
2023-05-23T10:08:39.760Z,1.05
2023-05-23T10:11:18.657Z,1.35
2023-05-23T10:13:48.920Z,1.52
2023-05-23T10:16:20.379Z,0.77
2023-05-23T10:18:53.305Z,0.77
2023-05-23T10:21:32.182Z,0.73
2023-05-23T10:24:04.737Z,0.90
2023-05-23T10:26:32.077Z,0.98
2023-05-23T10:29:00.653Z,1.38
2023-05-23T10:31:29.135Z,0.70
2023-05-23T10:34:07.084Z,0.80
2023-05-23T10:36:45.227Z,0.90
2023-05-23T10:39:37.234Z,0.70
2023-05-23T10:42:13.453Z,0.80
2023-05-23T10:44:40.755Z,0.90
2023-05-23T10:47:08.263Z,0.60
2023-05-23T10:49:46.092Z,0.75
2023-05-23T10:52:20.041Z,1.10
2023-05-23T10:54:51.825Z,1.00
2023-05-23T10:57:27.980Z,0.98
2023-05-23T10:59:55.894Z,0.70
2023-05-23T11:02:28.370Z,0.90
2023-05-23T11:05:23.605Z,1.05
2023-05-23T11:10:59.650Z,1.17
2023-05-23T11:13:47.472Z,1.17
2023-05-23T11:16:31.420Z,1.00
2023-05-23T11:19:18.831Z,0.82
2023-05-23T11:21:49.965Z,0.90
2023-05-23T11:24:20.383Z,0.90
2023-05-23T11:27:00.445Z,1.23
2023-05-23T11:29:29.192Z,0.90
2023-05-23T11:31:57.428Z,1.05
2023-05-23T11:34:27.792Z,1.02
2023-05-23T11:36:56.406Z,0.98
2023-05-23T11:39:24.338Z,0.60
2023-05-23T11:42:00.405Z,0.80
2023-05-23T11:44:30.374Z,1.13
2023-05-23T11:47:07.870Z,0.90
2023-05-23T11:49:39.741Z,0.90
2023-05-23T11:52:07.461Z,1.05
2023-05-23T11:54:34.767Z,0.93
2023-05-23T11:57:03.765Z,1.00
2023-05-23T11:59:31.503Z,1.00
2023-05-23T12:01:58.780Z,0.60
2023-05-23T12:04:27.312Z,1.17
2023-05-23T12:06:54.936Z,0.80
2023-05-23T12:09:22.299Z,1.00
2023-05-23T12:11:50.018Z,0.60
2023-05-23T12:14:19.404Z,0.95
2023-05-23T12:16:47.475Z,0.85
2023-05-23T12:19:17.276Z,0.77
2023-05-23T12:21:49.441Z,1.88
2023-05-23T12:24:18.693Z,0.80
2023-05-23T12:26:59.082Z,1.08
2023-05-23T12:29:35.614Z,0.80
2023-05-23T12:32:04.703Z,1.05
2023-05-23T12:34:32.019Z,0.65
2023-05-23T12:37:18.230Z,1.05
2023-05-23T12:39:47.250Z,0.88
2023-05-23T12:42:14.571Z,0.80
2023-05-23T12:44:43.708Z,0.70
2023-05-23T12:47:11.015Z,1.38
2023-05-23T12:49:41.097Z,0.80
2023-05-23T12:52:08.379Z,1.73
2023-05-23T12:54:35.594Z,0.80
2023-05-23T12:57:02.853Z,0.93
2023-05-23T12:59:30.061Z,0.77
2023-05-23T13:01:57.279Z,0.90
2023-05-23T13:04:24.618Z,0.70
2023-05-23T13:06:52.967Z,0.80
2023-05-23T13:09:20.238Z,1.08
2023-05-23T13:11:47.534Z,0.63
2023-05-23T13:14:14.860Z,0.85
2023-05-23T13:16:42.178Z,0.95
2023-05-23T13:19:09.522Z,1.00
2023-05-23T13:21:36.904Z,1.00
2023-05-23T13:24:04.267Z,0.82
2023-05-23T13:26:31.472Z,0.73
2023-05-23T13:28:58.788Z,0.70
2023-05-23T13:31:26.425Z,0.80
2023-05-23T13:33:53.869Z,1.13
2023-05-23T13:36:21.304Z,1.48
2023-05-23T13:38:48.566Z,0.90
2023-05-23T13:41:15.854Z,0.73
2023-05-23T13:43:43.295Z,1.00
2023-05-23T13:46:10.670Z,0.73
2023-05-23T13:48:37.933Z,1.08
2023-05-23T13:51:05.355Z,0.93
2023-05-23T13:53:32.871Z,0.90
2023-05-23T13:56:00.161Z,0.95
2023-05-23T13:58:27.755Z,1.00
2023-05-23T14:00:55.415Z,1.00
2023-05-23T14:03:24.611Z,0.90
2023-05-23T14:05:52.032Z,1.30
2023-05-23T14:08:19.283Z,1.27
2023-05-23T14:10:46.517Z,0.77
2023-05-23T14:13:13.756Z,0.98
2023-05-23T14:15:42.460Z,0.90
2023-05-23T14:18:10.141Z,0.80
2023-05-23T14:20:37.495Z,0.90
2023-05-23T14:23:04.722Z,0.98
2023-05-23T14:25:31.999Z,0.82
2023-05-23T14:27:59.311Z,0.95
2023-05-23T14:30:26.620Z,1.10
2023-05-23T14:32:54.437Z,0.90
2023-05-23T14:35:25.892Z,0.77
2023-05-23T14:37:53.247Z,0.70
2023-05-23T14:40:20.548Z,0.90
2023-05-23T14:42:47.863Z,0.90
2023-05-23T14:45:17.826Z,1.10
2023-05-23T14:47:46.199Z,1.00
2023-05-23T14:50:13.509Z,1.20
2023-05-23T14:52:41.025Z,0.63
2023-05-23T14:55:08.835Z,0.80
2023-05-23T14:57:36.252Z,1.00
2023-05-23T15:00:05.805Z,0.68
2023-05-23T15:02:33.393Z,1.17
2023-05-23T15:05:00.813Z,1.25
2023-05-23T15:07:28.103Z,0.90
2023-05-23T15:09:55.310Z,0.82
2023-05-23T15:12:22.782Z,1.20
2023-05-23T15:14:50.208Z,0.90
2023-05-23T15:17:23.094Z,1.33
2023-05-23T15:19:53.281Z,1.60
2023-05-23T15:22:36.357Z,1.00
2023-05-23T15:25:05.318Z,1.05
2023-05-23T15:27:32.683Z,0.80
2023-05-23T15:29:59.980Z,0.90
2023-05-23T15:32:27.279Z,1.02
2023-05-23T15:34:54.595Z,0.85
2023-05-23T15:37:21.933Z,0.73
2023-05-23T15:39:49.492Z,0.93
2023-05-23T15:42:16.885Z,1.35
2023-05-23T15:44:44.130Z,0.77
2023-05-23T15:47:11.482Z,1.00
2023-05-23T15:49:38.728Z,0.95
2023-05-23T15:52:06.046Z,0.88
2023-05-23T15:54:33.296Z,0.90
2023-05-23T15:57:01.339Z,0.80
2023-05-23T15:59:28.560Z,0.93
2023-05-23T16:01:55.838Z,1.10
2023-05-23T16:04:23.684Z,0.70
2023-05-23T16:06:51.454Z,0.82
2023-05-23T16:09:18.658Z,1.20
2023-05-23T16:11:45.891Z,0.60
2023-05-23T16:14:13.338Z,0.95
2023-05-23T16:16:40.864Z,1.10
2023-05-23T16:19:08.262Z,1.00
2023-05-23T16:21:36.683Z,0.95
2023-05-23T16:24:05.187Z,0.90
2023-05-23T16:26:32.497Z,1.15
2023-05-23T16:28:59.695Z,0.63
2023-05-23T16:31:28.438Z,0.80
2023-05-23T16:33:55.934Z,1.00
2023-05-23T16:36:23.450Z,0.80
2023-05-23T16:38:51.101Z,0.90
2023-05-23T16:41:19.302Z,1.10
2023-05-23T16:43:46.506Z,0.88
2023-05-23T16:46:13.787Z,1.10
2023-05-23T16:48:41.083Z,1.35
2023-05-23T16:51:08.454Z,0.90
2023-05-23T16:53:35.805Z,1.00
2023-05-23T16:56:04.476Z,0.80
2023-05-23T16:58:31.896Z,0.80
2023-05-23T17:00:59.254Z,1.20
2023-05-23T17:03:26.806Z,0.90
2023-05-23T17:05:54.865Z,1.00
2023-05-23T17:08:22.252Z,1.13
2023-05-23T17:10:49.545Z,0.90
2023-05-23T17:13:16.954Z,0.90
2023-05-23T17:15:44.651Z,0.80
2023-05-23T17:18:12.359Z,0.80
2023-05-23T17:20:40.971Z,0.70
2023-05-23T17:23:08.391Z,0.93
2023-05-23T17:25:36.050Z,0.57
2023-05-23T17:28:03.287Z,0.73
2023-05-23T17:30:30.496Z,0.85
2023-05-23T17:32:57.849Z,0.77
2023-05-23T17:35:25.144Z,0.77
2023-05-23T17:37:57.363Z,1.00
2023-05-23T17:40:25.718Z,1.00
2023-05-23T17:42:53.152Z,0.80
2023-05-23T17:45:21.088Z,1.08
2023-05-23T17:47:48.490Z,1.77
2023-05-23T17:50:15.807Z,1.00
2023-05-23T17:52:43.149Z,0.80
2023-05-23T17:55:10.870Z,0.98
2023-05-23T17:57:38.384Z,1.00
2023-05-23T18:00:06.683Z,1.15
2023-05-23T18:02:40.089Z,1.05
2023-05-23T18:05:07.677Z,0.80
2023-05-23T18:07:35.690Z,0.80
2023-05-23T18:10:03.435Z,1.13
2023-05-23T18:12:31.060Z,1.00
2023-05-23T18:15:07.786Z,0.90
2023-05-23T18:17:35.407Z,0.73
2023-05-23T18:20:03.202Z,0.93
2023-05-23T18:22:33.501Z,1.38
2023-05-23T18:25:01.135Z,1.20
2023-05-23T18:27:28.720Z,0.98
2023-05-23T18:29:56.523Z,1.02
2023-05-23T18:32:24.102Z,0.77
2023-05-23T18:34:51.455Z,1.30
2023-05-23T18:37:18.716Z,1.05
2023-05-23T18:39:46.220Z,1.13
2023-05-23T18:42:13.698Z,0.73
2023-05-23T18:44:41.812Z,1.08
2023-05-23T18:47:09.056Z,0.95
2023-05-23T18:49:36.591Z,1.10
2023-05-23T18:52:04.494Z,0.75
2023-05-23T18:54:31.701Z,0.80
2023-05-23T18:56:59.006Z,1.20
2023-05-23T18:59:26.392Z,0.90
2023-05-23T19:01:53.791Z,1.23
2023-05-23T19:04:21.471Z,0.93
2023-05-23T19:06:49.657Z,1.15
2023-05-23T19:09:17.141Z,0.80
2023-05-23T19:11:44.614Z,1.10
2023-05-23T19:14:11.888Z,0.85
2023-05-23T19:16:40.095Z,1.75
2023-05-23T19:19:07.424Z,0.93
2023-05-23T19:21:34.751Z,0.80
2023-05-23T19:24:02.162Z,0.98
2023-05-23T19:26:29.636Z,0.95
2023-05-23T19:28:56.922Z,0.70
2023-05-23T19:31:24.247Z,2.45
2023-05-23T19:33:51.512Z,0.90
2023-05-23T19:36:19.297Z,1.00
2023-05-23T19:38:46.673Z,1.17
2023-05-23T19:41:14.081Z,1.05
2023-05-23T19:43:41.544Z,1.10
2023-05-23T19:46:09.008Z,0.85
2023-05-23T19:48:36.769Z,1.23
2023-05-23T19:51:06.315Z,1.20
2023-05-23T19:53:33.698Z,0.77
2023-05-23T19:56:03.583Z,0.65
2023-05-23T19:58:31.048Z,0.90
2023-05-23T20:00:58.491Z,1.00
2023-05-23T20:03:25.803Z,0.90
2023-05-23T20:05:53.171Z,1.08
2023-05-23T20:08:20.626Z,0.68
2023-05-23T20:10:48.186Z,0.80
2023-05-23T20:13:15.632Z,0.70
2023-05-23T20:15:42.954Z,1.20
2023-05-23T20:18:10.652Z,1.10
2023-05-23T20:20:38.198Z,0.80
2023-05-23T20:23:05.861Z,0.90
2023-05-23T20:25:33.967Z,0.95
2023-05-23T20:28:01.382Z,0.88
2023-05-23T20:30:28.675Z,0.70
2023-05-23T20:32:56.043Z,1.02
2023-05-23T20:35:24.304Z,1.25
2023-05-23T20:37:51.873Z,0.80
2023-05-23T20:40:19.847Z,1.00
2023-05-23T20:42:47.441Z,0.90
2023-05-23T20:45:15.566Z,0.80
2023-05-23T20:47:43.193Z,1.05
2023-05-23T20:50:12.812Z,0.88
2023-05-23T20:52:42.887Z,0.90
2023-05-23T20:55:11.050Z,0.75
2023-05-23T20:57:38.693Z,0.80
2023-05-23T21:00:13.436Z,0.88
2023-05-23T21:02:41.779Z,1.35
2023-05-23T21:05:10.560Z,0.90
2023-05-23T21:07:38.709Z,0.90
2023-05-23T21:10:06.489Z,1.08
2023-05-23T21:12:34.130Z,1.25
2023-05-23T21:15:01.527Z,1.10
2023-05-23T21:17:29.191Z,0.90
2023-05-23T21:19:56.553Z,1.17
2023-05-23T21:22:23.933Z,1.00
2023-05-23T21:24:51.262Z,0.80
2023-05-23T21:27:18.521Z,1.02
2023-05-23T21:29:47.073Z,1.02
2023-05-23T21:32:14.449Z,1.13
2023-05-23T21:34:41.737Z,1.45
2023-05-23T21:37:09.272Z,1.20
2023-05-23T21:39:50.685Z,1.35
2023-05-23T21:42:18.825Z,1.70
2023-05-23T21:44:46.312Z,0.88
2023-05-23T21:47:13.871Z,1.35
2023-05-23T21:49:41.283Z,1.30
2023-05-23T21:52:08.719Z,1.20
2023-05-23T21:54:36.327Z,1.00
2023-05-23T21:57:03.824Z,1.05
2023-05-23T21:59:31.102Z,1.17
2023-05-23T22:01:58.575Z,0.90
2023-05-23T22:04:25.992Z,0.90
2023-05-23T22:06:53.370Z,0.73
2023-05-23T22:09:20.784Z,0.82
2023-05-23T22:11:48.099Z,1.15
2023-05-23T22:14:15.409Z,0.88
2023-05-23T22:16:42.738Z,1.23
2023-05-23T22:19:10.437Z,0.80
2023-05-23T22:21:38.152Z,1.02
2023-05-23T22:24:05.797Z,1.08
2023-05-23T22:26:33.250Z,0.90
2023-05-23T22:29:00.675Z,1.55
2023-05-23T22:31:29.154Z,1.10
2023-05-23T22:33:56.981Z,0.80
2023-05-23T22:36:24.454Z,0.80
2023-05-23T22:38:51.881Z,1.17
2023-05-23T22:41:19.414Z,0.95
2023-05-23T22:43:47.066Z,0.77
2023-05-23T22:46:14.884Z,1.05
2023-05-23T22:48:42.219Z,1.00
2023-05-23T22:51:09.916Z,0.90
2023-05-23T22:53:37.322Z,1.83
2023-05-23T22:56:04.930Z,0.90
2023-05-23T22:58:32.389Z,0.82
2023-05-23T23:00:59.679Z,1.02
2023-05-23T23:03:27.157Z,1.30
2023-05-23T23:05:54.523Z,1.00
2023-05-23T23:08:22.569Z,1.42
2023-05-23T23:10:50.018Z,0.90
2023-05-23T23:13:17.386Z,1.30
2023-05-23T23:15:45.400Z,1.15
2023-05-23T23:18:13.871Z,1.45
2023-05-23T23:20:41.754Z,1.25
2023-05-23T23:23:09.265Z,1.30
2023-05-23T23:25:36.640Z,1.10
2023-05-23T23:28:04.231Z,1.00
2023-05-23T23:30:31.933Z,1.40
2023-05-23T23:32:59.195Z,1.05
2023-05-23T23:35:26.552Z,1.55
2023-05-23T23:37:53.813Z,1.40
2023-05-23T23:40:21.159Z,1.08
2023-05-23T23:42:48.567Z,1.52
2023-05-23T23:45:15.945Z,0.95
2023-05-23T23:47:43.335Z,0.98
2023-05-23T23:50:10.849Z,1.13
2023-05-23T23:52:39.063Z,1.20
2023-05-23T23:55:07.096Z,1.00
2023-05-23T23:57:34.505Z,1.00
